Time;durP1;ratioP1;P1;durP2;ratioP2;P2;SDS_P1;SDS_P2;PMS_P1;PMS_P2;Temp;Humidity;BMP_temperature;BMP_pressure;BME280_temperature;BME280_humidity;BME280_pressure;Samples;Min_cycle;Max_cycle;Signal;HPM_P1;HPM_P2
2021/03/01 00:02:17;;;;;;;10.30;7.33;;;;;;;5.01;63.60;97731.44;5054853;28;20178;-59
2021/03/01 00:04:43;;;;;;;10.27;7.43;;;;;;;4.90;64.29;97728.28;5046700;28;20215;-62
2021/03/01 00:07:08;;;;;;;10.33;7.80;;;;;;;4.92;64.45;97734.16;5053482;28;20243;-59
2021/03/01 00:09:34;;;;;;;8.13;6.90;;;;;;;4.92;64.71;97735.00;5049526;28;20177;-58
2021/03/01 00:11:59;;;;;;;10.03;7.93;;;;;;;4.83;65.36;97728.13;5053541;28;20612;-59
2021/03/01 00:14:24;;;;;;;9.60;7.20;;;;;;;4.75;65.43;97732.44;5054678;28;20172;-59
2021/03/01 00:16:50;;;;;;;11.60;8.60;;;;;;;4.82;65.05;97734.28;5053745;28;20175;-59
2021/03/01 00:19:15;;;;;;;11.40;7.53;;;;;;;4.81;65.19;97735.25;5054305;28;20668;-59
2021/03/01 00:21:41;;;;;;;10.47;7.47;;;;;;;4.86;65.39;97726.97;5054389;28;20196;-59
2021/03/01 00:24:06;;;;;;;9.27;7.60;;;;;;;4.88;65.51;97733.66;5039042;28;20231;-59
2021/03/01 00:26:32;;;;;;;11.77;8.40;;;;;;;4.87;65.25;97729.41;5068769;28;20225;-59
2021/03/01 00:28:57;;;;;;;8.27;7.40;;;;;;;4.82;64.41;97731.69;5060874;28;20284;-60
2021/03/01 00:31:23;;;;;;;9.00;7.63;;;;;;;4.87;65.04;97741.63;5067415;28;20205;-60
2021/03/01 00:33:48;;;;;;;8.30;6.77;;;;;;;4.89;64.07;97731.88;5072539;28;20179;-58
2021/03/01 00:36:14;;;;;;;9.70;7.50;;;;;;;4.84;64.62;97742.75;5065352;28;20182;-59
2021/03/01 00:38:39;;;;;;;10.57;7.80;;;;;;;4.90;63.78;97738.72;5056817;28;20194;-58
2021/03/01 00:41:04;;;;;;;8.90;7.23;;;;;;;4.85;64.33;97733.16;5070488;28;20574;-59
2021/03/01 00:43:32;;;;;;;8.57;7.53;;;;;;;4.77;63.84;97730.50;5053822;28;20277;-59
2021/03/01 00:45:57;;;;;;;9.20;7.13;;;;;;;4.82;64.47;97742.09;5053449;28;20522;-62
2021/03/01 00:48:23;;;;;;;9.73;7.80;;;;;;;4.86;64.02;97738.22;5053713;28;20429;-60
2021/03/01 00:50:48;;;;;;;9.93;7.43;;;;;;;4.82;64.68;97729.06;5072453;28;20176;-59
2021/03/01 00:53:24;;;;;;;10.87;7.57;;;;;;;4.86;64.65;97733.00;5071891;28;20177;-59
2021/03/01 00:55:50;;;;;;;10.73;8.20;;;;;;;4.83;64.58;97725.50;5069989;28;20256;-59
2021/03/01 00:58:17;;;;;;;10.00;7.17;;;;;;;4.85;65.05;97740.97;5053235;28;20437;-59
2021/03/01 01:00:43;;;;;;;11.10;7.20;;;;;;;4.89;64.55;97726.69;5053542;28;20413;-58
2021/03/01 01:03:08;;;;;;;9.73;7.20;;;;;;;4.90;64.49;97731.72;5053552;28;20511;-59
2021/03/01 01:05:34;;;;;;;9.97;7.97;;;;;;;4.91;64.38;97728.13;5053452;28;20498;-59
2021/03/01 01:07:59;;;;;;;9.60;7.73;;;;;;;4.91;64.63;97725.53;5063489;28;20198;-60
2021/03/01 01:10:24;;;;;;;10.27;7.57;;;;;;;4.89;64.87;97724.88;5056579;28;20171;-59
2021/03/01 01:12:50;;;;;;;10.47;7.93;;;;;;;4.88;65.48;97725.03;5053457;28;20522;-59
2021/03/01 01:15:16;;;;;;;10.90;7.60;;;;;;;4.88;65.25;97723.25;5069498;28;20233;-59
2021/03/01 01:17:41;;;;;;;11.90;7.97;;;;;;;4.81;65.42;97724.84;5073053;28;20284;-59
2021/03/01 01:20:09;;;;;;;11.27;8.30;;;;;;;4.88;65.13;97722.44;5072125;28;20510;-59
2021/03/01 01:22:34;;;;;;;9.60;7.63;;;;;;;4.90;64.87;97723.91;5053771;28;20175;-59
2021/03/01 01:25:00;;;;;;;8.77;6.93;;;;;;;4.84;65.30;97721.09;5052779;28;20514;-59
2021/03/01 01:27:25;;;;;;;13.20;7.70;;;;;;;4.78;65.87;97724.34;5052098;28;20240;-59
2021/03/01 01:29:51;;;;;;;10.50;7.80;;;;;;;4.66;65.81;97720.38;5053226;28;20174;-59
2021/03/01 01:32:16;;;;;;;9.33;7.30;;;;;;;4.63;65.60;97718.09;5053362;28;20174;-59
2021/03/01 01:34:41;;;;;;;10.43;7.60;;;;;;;4.57;66.23;97719.50;5053289;28;20263;-59
2021/03/01 01:37:07;;;;;;;8.87;7.00;;;;;;;4.58;66.30;97717.75;5052963;28;20666;-58
2021/03/01 01:39:32;;;;;;;10.53;7.77;;;;;;;4.60;65.96;97715.78;5051916;28;20167;-59
2021/03/01 01:41:57;;;;;;;9.43;7.30;;;;;;;4.60;65.91;97716.59;5052889;28;20169;-59
2021/03/01 01:44:23;;;;;;;9.13;7.33;;;;;;;4.57;65.86;97722.13;5053004;28;20704;-58
2021/03/01 01:46:48;;;;;;;8.80;6.80;;;;;;;4.55;65.52;97715.44;5052275;28;20671;-59
2021/03/01 01:49:14;;;;;;;9.97;7.17;;;;;;;4.55;65.91;97713.66;5053694;28;20815;-58
2021/03/01 01:51:42;;;;;;;9.73;7.10;;;;;;;4.50;65.88;97718.50;5053017;28;20165;-59
2021/03/01 01:54:08;;;;;;;7.40;6.50;;;;;;;4.53;65.70;97715.56;5052993;28;20176;-59
2021/03/01 01:56:34;;;;;;;8.80;6.50;;;;;;;4.48;66.10;97715.22;5052888;28;20937;-58
2021/03/01 01:58:59;;;;;;;9.20;6.93;;;;;;;4.50;65.79;97713.28;5053048;28;20459;-59
2021/03/01 02:01:24;;;;;;;8.67;6.70;;;;;;;4.47;66.25;97710.19;5052995;28;20656;-58
2021/03/01 02:04:15;;;;;;;11.13;7.70;;;;;;;4.43;66.09;97716.66;5057000;28;20324;-59
2021/03/01 02:06:45;;;;;;;9.50;7.10;;;;;;;4.29;66.94;97712.03;5056679;28;20232;-59
2021/03/01 02:09:19;;;;;;;9.10;8.20;;;;;;;4.25;67.70;97708.91;5056516;28;20439;-59
2021/03/01 02:12:06;;;;;;;11.10;6.80;;;;;;;4.21;67.60;97705.00;5056441;28;20505;-59
2021/03/01 02:14:32;;;;;;;10.03;8.20;;;;;;;4.36;67.12;97707.84;5056724;28;20411;-59
2021/03/01 02:16:58;;;;;;;12.00;8.00;;;;;;;4.39;66.82;97702.31;5056327;28;20406;-60
2021/03/01 02:19:24;;;;;;;9.43;8.17;;;;;;;4.41;66.73;97695.19;5075486;28;20262;-60
2021/03/01 02:21:50;;;;;;;10.40;7.60;;;;;;;4.43;66.73;97704.47;5056738;28;20506;-59
2021/03/01 02:24:21;;;;;;;11.37;6.90;;;;;;;4.41;66.52;97697.78;5056543;28;20540;-59
2021/03/01 02:26:50;;;;;;;10.43;7.43;;;;;;;4.45;66.54;97688.72;5056485;28;20409;-59
2021/03/01 02:29:19;;;;;;;11.87;7.73;;;;;;;4.41;66.32;97695.19;5056214;28;20921;-59
2021/03/01 02:31:45;;;;;;;9.60;7.73;;;;;;;4.44;66.25;97695.69;5056890;28;20406;-59
2021/03/01 02:34:15;;;;;;;11.37;7.33;;;;;;;4.46;66.23;97698.13;5076421;28;20413;-59
2021/03/01 02:36:57;;;;;;;9.80;7.70;;;;;;;4.46;66.41;97690.31;5055472;28;21043;-60
2021/03/01 02:39:25;;;;;;;9.27;6.93;;;;;;;4.50;66.12;97681.25;5055972;28;20421;-59
2021/03/01 02:41:51;;;;;;;10.03;7.60;;;;;;;4.47;65.82;97686.78;5056093;28;20879;-59
2021/03/01 02:44:18;;;;;;;10.03;7.10;;;;;;;4.42;66.78;97691.63;5057040;28;20977;-59
2021/03/01 02:46:46;;;;;;;11.90;7.23;;;;;;;4.47;65.96;97679.78;5055703;28;20482;-59
2021/03/01 02:49:12;;;;;;;9.83;7.40;;;;;;;4.41;65.57;97692.59;5055686;28;20490;-60
2021/03/01 02:51:40;;;;;;;10.27;8.30;;;;;;;4.39;66.08;97686.72;5056045;28;20746;-59
2021/03/01 02:54:07;;;;;;;10.27;7.13;;;;;;;4.34;66.59;97683.78;5055661;28;20411;-60
2021/03/01 02:56:33;;;;;;;11.37;8.10;;;;;;;4.36;66.18;97687.03;5055470;28;20424;-59
2021/03/01 02:58:59;;;;;;;10.37;7.50;;;;;;;4.37;65.96;97681.69;5055825;28;20428;-59
2021/03/01 03:01:26;;;;;;;9.93;7.70;;;;;;;4.36;66.03;97684.44;5056077;28;20213;-59
2021/03/01 03:03:54;;;;;;;10.53;7.33;;;;;;;4.37;65.92;97689.47;5056009;28;20481;-59
2021/03/01 03:06:22;;;;;;;13.33;8.60;;;;;;;4.26;65.98;97692.34;5054276;28;20499;-59
2021/03/01 03:08:49;;;;;;;13.90;8.00;;;;;;;4.31;66.49;97681.47;5055538;28;20428;-60
2021/03/01 03:11:18;;;;;;;11.17;7.80;;;;;;;4.40;66.25;97681.38;5055527;28;20493;-59
2021/03/01 03:13:46;;;;;;;9.80;7.40;;;;;;;4.24;66.14;97683.88;5056010;28;20486;-59
2021/03/01 03:16:13;;;;;;;11.53;8.23;;;;;;;4.26;66.18;97681.13;5054772;28;20828;-61
2021/03/01 03:18:40;;;;;;;10.90;7.80;;;;;;;4.13;66.89;97682.34;5055454;28;20428;-59
2021/03/01 03:21:05;;;;;;;11.10;8.07;;;;;;;4.25;66.20;97684.69;5066221;28;20512;-59
2021/03/01 03:23:31;;;;;;;10.30;7.40;;;;;;;4.24;66.41;97683.06;5075510;28;20455;-59
2021/03/01 03:25:56;;;;;;;10.40;7.63;;;;;;;4.15;66.50;97683.00;5075090;28;20197;-60
2021/03/01 03:28:22;;;;;;;11.83;7.83;;;;;;;4.15;66.65;97677.81;5073209;28;20183;-59
2021/03/01 03:30:47;;;;;;;10.97;7.60;;;;;;;4.15;66.62;97676.97;5055072;28;20226;-60
2021/03/01 03:33:13;;;;;;;10.50;7.73;;;;;;;4.16;66.99;97687.25;5055389;28;20231;-59
2021/03/01 03:35:38;;;;;;;12.13;7.97;;;;;;;4.16;66.86;97678.63;5054958;28;20178;-59
2021/03/01 03:38:08;;;;;;;8.33;6.80;;;;;;;4.17;66.90;97683.66;5054786;28;20700;-59
2021/03/01 03:40:34;;;;;;;9.97;7.83;;;;;;;4.22;66.78;97679.81;5055098;28;20693;-58
2021/03/01 03:43:02;;;;;;;11.50;8.07;;;;;;;4.26;66.58;97681.94;5062272;28;20428;-59
2021/03/01 03:45:28;;;;;;;10.87;8.60;;;;;;;4.24;66.70;97672.66;5075253;28;20906;-59
2021/03/01 03:47:58;;;;;;;11.40;7.77;;;;;;;4.24;66.55;97677.88;5074353;28;20461;-59
2021/03/01 03:50:25;;;;;;;14.20;8.10;;;;;;;4.23;66.66;97674.44;5056682;28;20339;-61
2021/03/01 03:52:56;;;;;;;14.50;7.73;;;;;;;4.19;66.52;97678.31;5054458;28;20411;-60
2021/03/01 03:55:22;;;;;;;10.40;7.73;;;;;;;4.13;66.27;97679.75;5054762;28;20902;-59
2021/03/01 03:57:57;;;;;;;10.60;8.50;;;;;;;4.17;66.23;97675.88;5055491;28;20840;-58
2021/03/01 04:00:26;;;;;;;12.27;8.53;;;;;;;4.17;66.35;97675.03;5054520;28;20454;-59
2021/03/01 04:02:54;;;;;;;9.70;7.87;;;;;;;4.18;66.18;97676.69;5054650;28;20397;-59
2021/03/01 04:05:21;;;;;;;10.60;7.93;;;;;;;4.13;66.44;97677.13;5055493;28;20970;-59
2021/03/01 04:07:48;;;;;;;11.00;7.70;;;;;;;4.18;66.39;97679.28;5054250;28;20458;-59
2021/03/01 04:10:13;;;;;;;10.00;8.23;;;;;;;4.22;65.72;97674.59;5053911;28;20511;-60
2021/03/01 04:12:42;;;;;;;11.43;7.40;;;;;;;4.16;65.87;97671.66;5053363;28;20427;-61
2021/03/01 04:15:14;;;;;;;11.37;8.13;;;;;;;4.09;65.66;97668.00;5054667;28;20267;-60
2021/03/01 04:17:42;;;;;;;12.53;7.97;;;;;;;3.99;66.70;97672.50;5062474;28;20496;-59
2021/03/01 04:20:09;;;;;;;10.27;8.10;;;;;;;4.06;66.47;97664.91;5074459;28;20434;-59
2021/03/01 04:22:37;;;;;;;9.93;8.13;;;;;;;4.12;66.14;97664.28;5074216;28;20411;-57
2021/03/01 04:25:06;;;;;;;11.13;7.90;;;;;;;4.03;65.91;97667.81;5071319;28;21005;-57
2021/03/01 04:27:32;;;;;;;8.47;7.30;;;;;;;4.02;65.75;97671.41;5053907;28;20432;-57
2021/03/01 04:30:00;;;;;;;10.80;7.53;;;;;;;4.07;65.63;97669.16;5054232;28;20439;-57
2021/03/01 04:32:26;;;;;;;9.63;7.67;;;;;;;4.02;65.51;97666.19;5062107;28;20455;-57
2021/03/01 04:34:52;;;;;;;13.37;9.20;;;;;;;3.93;65.64;97670.50;5073954;28;20413;-57
2021/03/01 04:37:18;;;;;;;8.70;7.50;;;;;;;3.89;66.34;97668.38;5073597;28;20427;-57
2021/03/01 04:39:43;;;;;;;10.97;7.80;;;;;;;3.91;66.18;97669.84;5072987;28;20898;-57
2021/03/01 04:42:11;;;;;;;10.63;8.57;;;;;;;3.86;66.29;97660.88;5054100;28;20171;-57
2021/03/01 04:44:37;;;;;;;11.33;8.10;;;;;;;3.91;66.33;97666.44;5053997;28;20273;-57
2021/03/01 04:47:04;;;;;;;10.70;7.80;;;;;;;3.90;66.05;97664.78;5054468;28;20413;-57
2021/03/01 04:49:30;;;;;;;11.20;8.47;;;;;;;3.88;65.96;97667.53;5053911;28;20414;-57
2021/03/01 04:51:58;;;;;;;9.40;7.97;;;;;;;3.92;66.07;97673.25;5053850;28;20499;-57
2021/03/01 04:54:24;;;;;;;9.13;7.60;;;;;;;3.89;66.09;97671.78;5053560;28;20422;-57
2021/03/01 04:56:49;;;;;;;14.07;8.50;;;;;;;3.89;66.23;97670.97;5053089;28;20418;-57
2021/03/01 04:59:17;;;;;;;12.90;8.30;;;;;;;3.85;66.56;97667.88;5053408;28;20426;-57
2021/03/01 05:01:43;;;;;;;12.50;7.47;;;;;;;3.79;67.14;97672.81;5053468;28;20197;-56
2021/03/01 05:04:09;;;;;;;14.47;8.40;;;;;;;3.73;66.90;97674.25;5053544;28;20455;-57
2021/03/01 05:06:34;;;;;;;10.67;8.63;;;;;;;3.62;66.73;97677.09;5053156;28;20488;-57
2021/03/01 05:09:02;;;;;;;10.33;7.43;;;;;;;3.68;66.66;97675.66;5053442;28;20188;-57
2021/03/01 05:11:35;;;;;;;10.17;8.10;;;;;;;3.71;66.87;97678.81;5053488;28;20512;-57
2021/03/01 05:14:02;;;;;;;10.77;8.73;;;;;;;3.68;67.33;97673.06;5054581;28;20417;-57
2021/03/01 05:16:28;;;;;;;13.93;8.00;;;;;;;3.73;67.86;97668.25;5052700;28;20980;-57
2021/03/01 05:18:54;;;;;;;11.83;8.17;;;;;;;3.82;67.37;97675.16;5053051;28;20415;-57
2021/03/01 05:21:20;;;;;;;11.80;8.40;;;;;;;3.85;67.38;97672.22;5052995;28;20480;-58
2021/03/01 05:23:46;;;;;;;12.93;8.27;;;;;;;3.89;67.10;97673.56;5051969;28;20523;-58
2021/03/01 05:26:13;;;;;;;11.90;9.30;;;;;;;3.80;67.61;97684.88;5053142;28;20234;-58
2021/03/01 05:28:38;;;;;;;13.67;8.77;;;;;;;3.84;67.24;97681.00;5053358;28;20191;-57
2021/03/01 05:31:05;;;;;;;12.20;9.20;;;;;;;3.85;67.08;97680.03;5053317;28;20407;-57
2021/03/01 05:33:30;;;;;;;11.90;9.00;;;;;;;3.82;67.42;97678.53;5053051;28;20711;-57
2021/03/01 05:35:55;;;;;;;11.50;8.57;;;;;;;3.84;66.93;97683.59;5053880;28;20504;-59
2021/03/01 05:38:21;;;;;;;13.27;8.77;;;;;;;3.86;66.39;97685.06;5056030;28;20216;-58
2021/03/01 05:40:47;;;;;;;11.00;8.00;;;;;;;3.85;65.88;97685.22;5057515;28;20172;-57
2021/03/01 05:43:14;;;;;;;11.50;8.80;;;;;;;3.77;66.50;97687.75;5058108;28;20176;-57
2021/03/01 05:45:43;;;;;;;19.30;9.60;;;;;;;3.77;66.84;97683.38;5057209;28;20449;-58
2021/03/01 05:48:10;;;;;;;15.60;9.00;;;;;;;3.74;67.16;97678.50;5056823;28;20516;-58
2021/03/01 05:50:38;;;;;;;13.80;8.60;;;;;;;3.75;66.90;97687.91;5056884;28;20974;-57
2021/03/01 05:53:08;;;;;;;10.53;8.70;;;;;;;3.68;67.42;97681.69;5057389;28;20785;-57
2021/03/01 05:55:34;;;;;;;11.50;8.53;;;;;;;3.70;67.15;97682.34;5056938;28;20568;-58
2021/03/01 05:58:01;;;;;;;14.27;9.17;;;;;;;3.69;67.07;97685.94;5056546;28;20529;-57
2021/03/01 06:00:27;;;;;;;10.70;8.27;;;;;;;3.76;67.12;97692.16;5056894;28;20170;-57
2021/03/01 06:02:55;;;;;;;12.90;8.80;;;;;;;3.74;66.97;97685.47;5056973;28;20874;-57
2021/03/01 06:05:21;;;;;;;11.13;8.50;;;;;;;3.70;68.00;97684.13;5056729;28;20480;-57
2021/03/01 06:07:48;;;;;;;13.33;9.43;;;;;;;3.76;67.55;97692.16;5056422;28;20933;-58
2021/03/01 06:10:13;;;;;;;13.70;9.50;;;;;;;3.80;67.25;97688.28;5056864;28;20166;-56
2021/03/01 06:12:38;;;;;;;11.07;9.20;;;;;;;3.81;67.06;97694.28;5057924;28;20446;-59
2021/03/01 06:15:05;;;;;;;18.77;9.20;;;;;;;3.88;65.93;97698.75;5056200;28;20196;-57
2021/03/01 06:17:30;;;;;;;13.93;9.50;;;;;;;3.81;66.57;97689.91;5056222;28;20258;-57
2021/03/01 06:19:59;;;;;;;12.40;9.00;;;;;;;3.81;66.89;97687.31;5056614;28;20507;-56
2021/03/01 06:22:44;;;;;;;11.73;8.87;;;;;;;3.85;66.35;97691.25;5056479;28;20657;-57
2021/03/01 06:25:15;;;;;;;11.53;8.80;;;;;;;3.87;66.39;97707.50;5056413;28;20894;-57
2021/03/01 06:27:54;;;;;;;10.67;8.80;;;;;;;3.80;67.20;97698.69;5056071;28;20436;-57
2021/03/01 06:30:23;;;;;;;11.50;7.47;;;;;;;3.80;66.96;97703.06;5056300;28;20423;-57
2021/03/01 06:33:11;;;;;;;13.00;8.80;;;;;;;3.84;67.20;97704.41;5056435;28;20406;-57
2021/03/01 06:35:39;;;;;;;13.47;9.00;;;;;;;3.89;67.15;97703.00;5056224;28;20406;-57
2021/03/01 06:38:23;;;;;;;16.70;10.20;;;;;;;3.87;67.28;97697.13;5055620;28;20473;-57
2021/03/01 06:41:03;;;;;;;13.40;9.33;;;;;;;3.88;67.36;97698.75;5057101;28;20427;-57
2021/03/01 06:43:29;;;;;;;14.00;8.67;;;;;;;3.93;67.06;97699.09;5056199;28;20450;-58
2021/03/01 06:46:05;;;;;;;12.83;9.23;;;;;;;3.90;66.88;97704.59;5056236;28;20484;-57
2021/03/01 06:48:31;;;;;;;10.23;7.33;;;;;;;3.95;67.37;97702.38;5055472;28;20692;-57
2021/03/01 06:50:57;;;;;;;15.87;9.90;;;;;;;3.93;67.17;97704.28;5055798;28;20421;-57
2021/03/01 06:53:22;;;;;;;15.37;8.93;;;;;;;3.92;67.58;97705.28;5056314;28;20521;-56
2021/03/01 06:55:59;;;;;;;10.43;8.83;;;;;;;3.93;68.10;97714.69;5055846;28;20179;-56
2021/03/01 06:58:27;;;;;;;18.70;10.13;;;;;;;4.01;67.91;97721.75;5055912;28;20655;-57
2021/03/01 07:01:01;;;;;;;12.53;9.07;;;;;;;4.01;68.00;97713.94;5055811;28;20447;-57
2021/03/01 07:03:26;;;;;;;13.67;9.33;;;;;;;3.99;68.21;97718.47;5055798;28;20463;-57
2021/03/01 07:05:57;;;;;;;16.17;9.27;;;;;;;4.11;68.18;97714.69;5055138;28;20516;-59
2021/03/01 07:08:44;;;;;;;11.87;8.80;;;;;;;4.20;68.25;97717.16;5056734;28;20208;-58
2021/03/01 07:11:21;;;;;;;12.97;9.70;;;;;;;4.24;68.10;97720.28;5059341;28;20468;-59
2021/03/01 07:13:48;;;;;;;13.57;9.97;;;;;;;4.29;68.29;97712.84;5075728;28;20414;-57
2021/03/01 07:16:14;;;;;;;15.17;8.80;;;;;;;4.42;68.64;97715.03;5075230;28;20422;-57
2021/03/01 07:18:41;;;;;;;11.80;8.10;;;;;;;4.48;68.08;97715.22;5069867;28;20481;-59
2021/03/01 07:21:11;;;;;;;11.93;8.50;;;;;;;4.53;67.91;97720.00;5055379;28;20414;-57
2021/03/01 07:23:40;;;;;;;12.43;9.40;;;;;;;4.55;68.51;97726.66;5073182;28;20466;-59
2021/03/01 07:26:06;;;;;;;12.97;8.80;;;;;;;4.60;68.39;97719.19;5075152;28;20436;-58
2021/03/01 07:28:33;;;;;;;14.47;9.50;;;;;;;4.76;68.41;97721.09;5062356;28;20446;-58
2021/03/01 07:31:01;;;;;;;13.67;8.97;;;;;;;4.85;68.20;97723.56;5055044;28;20422;-60
2021/03/01 07:33:26;;;;;;;14.27;9.50;;;;;;;4.91;68.64;97729.94;5055014;28;20425;-59
2021/03/01 07:35:53;;;;;;;14.07;10.10;;;;;;;5.00;69.07;97726.41;5059922;28;20424;-59
2021/03/01 07:38:19;;;;;;;11.23;9.30;;;;;;;5.11;68.99;97724.31;5074901;28;20198;-59
2021/03/01 07:40:44;;;;;;;14.60;9.80;;;;;;;5.24;68.44;97732.50;5074977;28;20415;-59
2021/03/01 07:43:12;;;;;;;12.13;9.53;;;;;;;5.32;68.16;97728.28;5075325;28;20589;-58
2021/03/01 07:45:38;;;;;;;12.53;10.30;;;;;;;5.42;68.29;97723.75;5068942;28;20540;-58
2021/03/01 07:48:15;;;;;;;16.90;10.77;;;;;;;5.51;68.67;97717.59;5054131;28;20428;-59
2021/03/01 07:50:46;;;;;;;12.10;9.53;;;;;;;5.53;68.00;97723.44;5061779;28;20419;-60
2021/03/01 07:53:43;;;;;;;15.00;10.13;;;;;;;5.57;68.40;97711.72;5074373;28;20407;-60
2021/03/01 07:56:24;;;;;;;14.80;9.83;;;;;;;5.76;68.43;97716.66;5044905;28;20439;-58
2021/03/01 07:59:00;;;;;;;16.33;10.33;;;;;;;5.79;67.69;97716.31;5054321;28;20977;-58
2021/03/01 08:01:26;;;;;;;16.07;10.10;;;;;;;5.84;67.82;97719.28;5055409;28;20480;-58
2021/03/01 08:03:51;;;;;;;9.90;8.70;;;;;;;5.98;66.91;97724.66;5054635;28;20591;-60
2021/03/01 08:06:17;;;;;;;11.03;9.60;;;;;;;6.05;67.34;97723.03;5053909;28;20822;-58
2021/03/01 08:08:50;;;;;;;12.80;10.50;;;;;;;6.03;67.34;97724.19;5060160;28;20191;-60
2021/03/01 08:11:38;;;;;;;11.60;10.40;;;;;;;6.19;66.52;97724.16;5044147;28;20205;-60
2021/03/01 08:14:11;;;;;;;14.83;10.33;;;;;;;6.24;66.68;97725.31;5068139;28;20428;-57
2021/03/01 08:16:37;;;;;;;14.90;10.00;;;;;;;6.38;66.47;97720.41;5053846;28;20416;-59
2021/03/01 08:19:02;;;;;;;12.20;9.80;;;;;;;6.50;66.60;97729.50;5060662;28;20445;-61
2021/03/01 08:22:05;;;;;;;13.10;10.10;;;;;;;6.58;65.73;97724.25;5074182;28;20227;-59
2021/03/01 08:24:47;;;;;;;11.43;9.20;;;;;;;6.62;65.73;97717.72;5070742;28;20213;-62
2021/03/01 08:27:24;;;;;;;13.60;9.57;;;;;;;6.72;66.38;97716.53;5033896;28;20461;-61
2021/03/01 08:30:18;;;;;;;13.33;9.43;;;;;;;6.87;64.70;97714.88;5055982;28;20428;-60
2021/03/01 08:32:52;;;;;;;12.57;9.23;;;;;;;6.97;64.90;97710.28;5068082;28;20405;-58
2021/03/01 08:35:24;;;;;;;10.97;8.60;;;;;;;7.12;65.36;97715.59;5054254;28;20397;-59
2021/03/01 08:37:50;;;;;;;12.47;9.80;;;;;;;7.12;64.35;97713.00;5054420;28;20451;-59
2021/03/01 08:40:20;;;;;;;12.43;10.40;;;;;;;7.23;65.04;97720.44;5054198;28;20426;-60
2021/03/01 08:42:47;;;;;;;10.67;8.70;;;;;;;7.32;63.78;97719.41;5053840;28;20206;-60
2021/03/01 08:45:19;;;;;;;12.07;8.63;;;;;;;7.46;64.05;97718.69;5053487;28;20508;-59
2021/03/01 08:47:49;;;;;;;11.03;9.90;;;;;;;7.60;61.98;97720.56;5053640;28;20430;-59
2021/03/01 08:50:15;;;;;;;11.30;8.13;;;;;;;7.57;62.58;97725.31;5053757;28;20431;-60
2021/03/01 08:52:48;;;;;;;14.53;9.30;;;;;;;7.44;62.19;97727.69;5053354;28;20505;-60
2021/03/01 08:55:17;;;;;;;9.80;8.20;;;;;;;7.62;62.55;97715.97;5054088;28;20260;-59
2021/03/01 08:58:03;;;;;;;9.80;8.23;;;;;;;7.85;61.03;97716.78;5054168;28;20451;-60
2021/03/01 09:00:30;;;;;;;10.50;8.47;;;;;;;7.77;61.91;97714.22;5057443;28;20497;-59
2021/03/01 09:03:18;;;;;;;10.57;8.13;;;;;;;7.69;60.83;97711.69;5073726;28;20415;-59
2021/03/01 09:05:46;;;;;;;10.27;8.93;;;;;;;7.91;60.33;97710.03;5072147;28;20418;-58
2021/03/01 09:08:12;;;;;;;9.40;6.97;;;;;;;8.07;60.56;97709.91;5033239;28;20436;-57
2021/03/01 09:10:47;;;;;;;12.40;8.30;;;;;;;8.24;58.68;97711.44;5033519;28;20407;-57
2021/03/01 09:13:17;;;;;;;8.73;7.83;;;;;;;8.23;59.08;97705.34;5050102;28;20422;-59
2021/03/01 09:15:43;;;;;;;8.83;7.70;;;;;;;8.32;59.47;97708.72;5053132;28;20512;-59
2021/03/01 09:18:09;;;;;;;8.27;7.47;;;;;;;8.42;57.89;97704.06;5052902;28;20465;-57
2021/03/01 09:20:50;;;;;;;8.30;7.20;;;;;;;8.56;56.40;97710.31;5053385;28;20196;-57
2021/03/01 09:23:33;;;;;;;7.93;6.07;;;;;;;8.59;56.84;97717.81;5064411;28;20914;-57
2021/03/01 09:25:58;;;;;;;7.40;6.57;;;;;;;8.94;56.40;97704.81;5065060;28;20186;-58
2021/03/01 09:28:32;;;;;;;8.57;7.60;;;;;;;9.11;54.81;97708.84;5053145;28;20940;-60
2021/03/01 09:31:06;;;;;;;9.33;7.07;;;;;;;9.17;54.54;97702.06;5033392;28;20177;-60
2021/03/01 09:33:32;;;;;;;7.77;7.00;;;;;;;9.36;53.21;97698.88;5032075;28;20942;-61
2021/03/01 09:35:57;;;;;;;7.80;7.00;;;;;;;9.42;53.20;97698.09;5031814;28;20426;-62
2021/03/01 09:38:23;;;;;;;7.63;6.70;;;;;;;9.70;52.77;97692.97;5045052;28;20198;-60
2021/03/01 09:41:06;;;;;;;9.10;6.83;;;;;;;10.14;52.04;97699.69;5052870;28;20579;-61
2021/03/01 09:43:33;;;;;;;7.53;6.73;;;;;;;10.26;50.04;97702.59;5057661;28;20539;-61
2021/03/01 09:45:59;;;;;;;7.60;6.80;;;;;;;10.42;49.65;97706.75;5072919;28;20462;-58
2021/03/01 09:48:28;;;;;;;9.40;7.30;;;;;;;10.57;50.34;97699.56;5073084;28;20431;-60
2021/03/01 09:50:55;;;;;;;7.40;6.63;;;;;;;11.08;48.53;97704.34;5067873;28;20453;-62
2021/03/01 09:53:22;;;;;;;7.70;7.00;;;;;;;11.16;47.36;97700.72;5052725;28;20989;-61
2021/03/01 09:55:53;;;;;;;8.40;7.50;;;;;;;11.45;47.11;97700.41;5052849;28;20799;-60
2021/03/01 09:58:25;;;;;;;9.17;7.60;;;;;;;11.52;46.47;97688.13;5063559;28;20444;-61
2021/03/01 10:00:52;;;;;;;8.63;6.93;;;;;;;11.86;46.06;97695.91;5072819;28;20413;-62
2021/03/01 10:03:17;;;;;;;8.50;7.60;;;;;;;12.03;44.17;97688.44;5072779;28;20424;-58
2021/03/01 10:05:50;;;;;;;8.50;7.33;;;;;;;11.99;44.37;97697.75;5063432;28;20425;-59
2021/03/01 10:08:25;;;;;;;6.90;5.93;;;;;;;12.33;44.83;97693.09;5071512;28;20187;-61
2021/03/01 10:10:52;;;;;;;8.20;7.50;;;;;;;12.40;43.02;97683.34;5068546;28;20924;-59
2021/03/01 10:13:27;;;;;;;8.17;7.33;;;;;;;12.50;43.02;97690.84;5052956;28;20532;-62
2021/03/01 10:15:53;;;;;;;9.97;7.50;;;;;;;12.54;42.10;97688.63;5052353;28;20405;-60
2021/03/01 10:18:21;;;;;;;8.30;7.40;;;;;;;12.55;42.63;97680.50;5052603;28;20468;-64
2021/03/01 10:20:54;;;;;;;8.23;7.40;;;;;;;12.38;42.66;97680.13;5052869;28;20410;-64
2021/03/01 10:23:40;;;;;;;8.33;7.63;;;;;;;12.58;43.12;97684.53;5054698;28;20748;-65
2021/03/01 10:26:21;;;;;;;7.90;6.77;;;;;;;12.81;40.99;97680.44;5055932;28;20791;-60
2021/03/01 10:28:58;;;;;;;7.90;6.90;;;;;;;12.97;41.75;97685.25;5056367;28;20429;-60
2021/03/01 10:31:35;;;;;;;7.83;6.20;;;;;;;13.21;40.57;97673.22;5058098;28;20965;-58
2021/03/01 10:34:07;;;;;;;9.10;7.20;;;;;;;13.43;40.56;97672.72;5055075;28;20421;-64
2021/03/01 10:36:45;;;;;;;9.93;7.60;;;;;;;13.19;39.81;97681.38;5055877;28;20471;-63
2021/03/01 10:39:18;;;;;;;8.73;6.97;;;;;;;13.37;38.93;97675.38;5054930;28;20422;-64
2021/03/01 10:41:46;;;;;;;15.93;7.77;;;;;;;13.31;39.60;97674.44;5055742;28;20863;-58
2021/03/01 10:44:13;;;;;;;7.43;6.40;;;;;;;13.55;39.70;97664.97;5055572;28;20449;-64
2021/03/01 10:46:45;;;;;;;6.97;6.37;;;;;;;13.63;39.11;97671.81;5055490;28;20425;-58
2021/03/01 10:49:25;;;;;;;7.53;6.93;;;;;;;13.41;39.33;97669.50;5056064;28;20432;-65
2021/03/01 10:51:52;;;;;;;8.07;7.27;;;;;;;13.53;37.58;97664.38;5054764;28;20413;-65
2021/03/01 10:54:18;;;;;;;6.97;6.37;;;;;;;13.54;37.63;97662.50;5056035;28;20842;-57
2021/03/01 10:56:44;;;;;;;7.60;6.60;;;;;;;13.70;36.30;97667.28;5055784;28;20493;-64
2021/03/01 10:59:10;;;;;;;6.90;6.30;;;;;;;13.85;36.16;97663.34;5055915;28;20515;-58
2021/03/01 11:01:41;;;;;;;6.50;5.90;;;;;;;14.02;36.22;97659.13;5055175;28;20179;-60
2021/03/01 11:04:08;;;;;;;8.30;6.40;;;;;;;14.12;35.92;97662.13;5036089;28;20219;-64
2021/03/01 11:06:34;;;;;;;6.63;6.03;;;;;;;14.28;35.39;97658.97;5035568;28;20399;-65
2021/03/01 11:09:02;;;;;;;8.90;6.50;;;;;;;14.26;35.13;97662.81;5034477;28;20999;-65
2021/03/01 11:11:27;;;;;;;6.40;5.80;;;;;;;14.40;34.77;97659.09;5035874;28;20403;-58
2021/03/01 11:13:53;;;;;;;6.87;6.17;;;;;;;14.42;34.72;97660.47;5035975;28;20399;-65
2021/03/01 11:16:18;;;;;;;7.60;5.83;;;;;;;14.57;34.39;97649.53;5035538;28;20546;-64
2021/03/01 11:18:44;;;;;;;7.40;5.60;;;;;;;14.36;34.09;97640.19;5055275;28;20203;-58
2021/03/01 11:21:10;;;;;;;5.37;4.87;;;;;;;14.54;33.28;97646.53;5055584;28;20195;-64
2021/03/01 11:23:35;;;;;;;6.10;5.50;;;;;;;14.53;33.42;97651.00;5055528;28;20244;-57
2021/03/01 11:26:01;;;;;;;10.70;5.20;;;;;;;14.91;32.95;97642.88;5055243;28;20172;-58
2021/03/01 11:28:27;;;;;;;5.43;4.90;;;;;;;14.90;30.32;97642.06;5055279;28;20270;-58
2021/03/01 11:30:53;;;;;;;8.37;5.60;;;;;;;14.94;30.88;97645.91;5055626;28;20168;-64
2021/03/01 11:33:19;;;;;;;7.53;5.20;;;;;;;15.13;31.21;97641.38;5054685;28;20180;-58
2021/03/01 11:35:44;;;;;;;5.50;5.00;;;;;;;15.34;31.53;97627.69;5055272;28;20318;-57
2021/03/01 11:38:10;;;;;;;6.33;4.80;;;;;;;15.38;31.82;97629.66;5054675;28;20438;-65
2021/03/01 11:40:36;;;;;;;6.10;5.50;;;;;;;15.37;31.22;97624.59;5055103;28;20168;-65
2021/03/01 11:43:01;;;;;;;5.50;4.97;;;;;;;15.62;30.76;97616.53;5055285;28;20190;-58